UCFL

Tamchy Airport

Tamchy, Kyrgyzstan
TAF UCFL 231946Z 2321/2406 34003G08MPS 9999 SCT100
Issued Valid From Valid To
Apr-23 @ 19:46 UTC
(3 hours ago)
Apr-23 @ 21:00 UTC
(2 hours ago)
Apr-24 @ 06:00 UTC
(in 7 hours)
Apr-23 @ 21:00 to Apr-24 @ 06:00
TAF UCFL 231946Z 2321/2406 34003G08MPS 9999 SCT100
Wind Visibility Clouds
340° at 6 knots
 Gusting to 16 knots
10,000+ meters
  • Scattered at 10,000' AGL
TAF UCFL 231946Z 2321/2406 34003G08MPS 9999 SCT100
Issued Apr-23 @ 19:46 UTC
(3 hours ago)
Valid From Apr-23 @ 21:00 UTC
(2 hours ago)
Valid To Apr-24 @ 06:00 UTC
(in 7 hours)
Apr-23 @ 21:00 - Apr-24 @ 06:00
Wind Visibility
340° at 6 knots
 Gusting to 16 knots
10,000+ meters
Clouds
  • Scattered at 10,000' AGL